Detall de PIREP

Printer-friendly versionPDF version

[2012/12/19 09:50:00]
Flight IATA:CT1005
Pilot Number:042
Company ICAO:CAT
Aircraft Type:MD11/E
PAX:180
Aircraft Registration:PAX
Departing Airport: GCLP
Destination Airport: EHAM
Alternate Airport:EHRD
Online: VATSIM
Route:KONBA UN866 BEXAL DCT AGADO UN866 STG UN741 MOKOR UN867 BAKUL UN873 ADUTO UN873 FERDI UY18 DENUT
Flight Level:F360
No Slew and time accel
No pause
Crash detect
Detect pilot in Cockpit between each 30 and 45 minutes
09:50 Zero fuel Weight: 377798 Lbs, Fuel Weight: 120022 Lbs
09:50 VATSIM:GCLP 190930Z VRB01KT CAVOK 21/14 Q1021 NOSIG
09:50 VATSIM:EHAM 190925Z 12005KT 090V150 0800 R18C/P2000U R27/1600U R18R/1000V1600D R06/0900VP2000U PRFG BR SCT001 BKN002 BKN003 06/06 Q1022 BECMG 1500 BR BKN001
09:50 VOICE CATALONIAN/EU TOUR
09:55 Parking Brakes off
10:04 Take-off
10:04 Take off Weight: 496114 Lbs
10:04 Wind: 038º @ 008 Knots Heading: 020º
10:04 POS N27º 56´ 17´´ W015º 23´ 02´´
10:04 Gear Up: 187 Knots
10:04 Flaps:5 at 187 Knots
10:05 Flaps:4 at 173 Knots
10:05 Flaps:3 at 175 Knots
10:05 Flaps:2 at 176 Knots
10:05 Flaps:1 at 176 Knots
10:06 Flaps:0 at 248 Knots
10:19 Wind:306º@018 Knots Heading: 349º Ground Speed: 426 Knots Altitude 23234 ft
10:27 TOC
10:27 Fuel Weight: 106080 Lb
10:34 Wind:286º@053 Knots Heading: 010º Ground Speed: 461 Knots Altitude 36213 ft
10:49 Wind:292º@053 Knots Heading: 027º Ground Speed: 482 Knots Altitude 36184 ft
11:04 Wind:292º@053 Knots Heading: 028º Ground Speed: 479 Knots Altitude 36220 ft
11:19 Wind:298º@089 Knots Heading: 024º Ground Speed: 469 Knots Altitude 36213 ft
11:34 Wind:292º@100 Knots Heading: 005º Ground Speed: 446 Knots Altitude 36207 ft
11:49 Wind:292º@116 Knots Heading: 004º Ground Speed: 441 Knots Altitude 36190 ft
12:04 Wind:275º@079 Knots Heading: 009º Ground Speed: 475 Knots Altitude 36158 ft
12:19 Wind:273º@046 Knots Heading: 042º Ground Speed: 493 Knots Altitude 36053 ft
12:34 Wind:289º@039 Knots Heading: 043º Ground Speed: 481 Knots Altitude 36020 ft
12:49 Wind:301º@050 Knots Heading: 041º Ground Speed: 471 Knots Altitude 35984 ft
13:04 Wind:315º@061 Knots Heading: 024º Ground Speed: 437 Knots Altitude 38267 ft
13:19 Wind:315º@067 Knots Heading: 044º Ground Speed: 453 Knots Altitude 38996 ft
13:34 Wind:317º@069 Knots Heading: 035º Ground Speed: 438 Knots Altitude 39068 ft
13:44 TOD
13:44 Fuel Weight: 55947 Lb
13:49 Wind:328º@078 Knots Heading: 355º Ground Speed: 350 Knots Altitude 26535 ft
13:58 Flaps:1 at 282 Knots
14:01 Flaps:2 at 248 Knots
14:01 Flaps:3 at 241 Knots
14:01 Flaps:2 at 239 Knots
14:01 Flaps:3 at 238 Knots
14:01 Flaps:4 at 235 Knots
14:01 Flaps:3 at 225 Knots
14:01 Flaps:4 at 225 Knots
14:01 Flaps:3 at 224 Knots
14:01 Flaps:2 at 223 Knots
14:01 Flaps:3 at 220 Knots
14:02 Flaps:4 at 217 Knots
14:02 Flaps:3 at 216 Knots
14:02 Flaps:2 at 216 Knots
14:02 Flaps:3 at 215 Knots
14:04 Wind:001º@013 Knots Heading: 030º Ground Speed: 182 Knots Altitude 7073 ft
14:04 Flaps:4 at 177 Knots
14:04 Flaps:5 at 178 Knots
14:04 Flaps:4 at 178 Knots
14:05 Flaps:3 at 186 Knots
14:13 Flaps:4 at 190 Knots
14:13 Flaps:3 at 191 Knots
14:13 Flaps:4 at 189 Knots
14:13 Flaps:5 at 189 Knots
14:13 Flaps:6 at 188 Knots
14:15 Flaps:7 at 181 Knots
14:15 Gear Down: 179 Knots
14:16 Flaps:8 at 177 Knots
14:16 Flaps:7 at 176 Knots
14:16 Flaps:8 at 174 Knots
14:19 Wind:112º@007 Knots Heading: 180º Ground Speed: 154 Knots Altitude 780 ft
14:20 TouchDown:Rate -106 ft/min Speed: 149 Knots
14:20 VATSIM:EHAM 191355Z 12007KT 5000 BR FEW007 SCT008 BKN009 06/05 Q1022 NOSIG
14:20 Land
14:20 Wind:112º@007 Knots
14:20 Heading: 182º
14:20 Flight Duration: 04:16
14:20 Landing Weight: 425359 Lbs
14:20 POS N52º 19´ 00´´ E004º 44´ 20´´
14:25 Parking brakes on
14:25 Block to Block Duration: 04:30
14:25 Final Fuel: 46885 Lbls
14:25 Spent Fuel: 73137 Lbls
14:25 Flight Length: 1815 NM
14:25 TOD Land Length: 154 NM

Exportar CSV

Powered by Drupal - Modified by Danger4k